createdAt,value
2018-07-26T00:02:25.485Z,24.35
2018-07-26T00:04:55.740Z,24.40
2018-07-26T00:07:26.422Z,24.43
2018-07-26T00:09:56.545Z,24.45
2018-07-26T00:12:26.964Z,24.47
2018-07-26T00:14:57.069Z,24.31
2018-07-26T00:17:27.556Z,24.08
2018-07-26T00:19:58.050Z,24.03
2018-07-26T00:22:31.392Z,23.99
2018-07-26T00:25:01.443Z,24.06
2018-07-26T00:27:32.942Z,24.03
2018-07-26T00:30:03.580Z,23.78
2018-07-26T00:32:33.723Z,23.76
2018-07-26T00:35:04.682Z,23.74
2018-07-26T00:37:38.297Z,23.75
2018-07-26T00:40:10.260Z,23.84
2018-07-26T00:42:41.001Z,23.80
2018-07-26T00:45:10.943Z,23.84
2018-07-26T00:47:41.027Z,23.74
2018-07-26T00:50:11.147Z,23.73
2018-07-26T00:52:41.664Z,23.63
2018-07-26T00:55:12.557Z,23.35
2018-07-26T00:57:44.427Z,23.31
2018-07-26T01:00:14.931Z,23.34
2018-07-26T01:02:45.225Z,23.51
2018-07-26T01:05:15.340Z,23.59
2018-07-26T01:07:48.428Z,23.59
2018-07-26T01:10:18.379Z,23.63
2018-07-26T01:12:49.312Z,23.65
2018-07-26T01:15:20.445Z,23.80
2018-07-26T01:17:51.901Z,23.63
2018-07-26T01:20:22.103Z,23.62
2018-07-26T01:22:52.309Z,23.66
2018-07-26T01:25:24.191Z,23.67
2018-07-26T01:27:56.658Z,23.70
2018-07-26T01:30:30.940Z,23.69
2018-07-26T01:33:01.688Z,23.64
2018-07-26T01:35:31.637Z,23.69
2018-07-26T01:38:05.252Z,23.57
2018-07-26T01:40:35.373Z,23.63
2018-07-26T01:45:15.979Z,23.50
2018-07-26T01:47:45.868Z,23.50
2018-07-26T01:50:15.834Z,23.52
2018-07-26T01:52:45.862Z,23.46
2018-07-26T01:55:15.925Z,23.51
2018-07-26T01:57:45.520Z,23.42
2018-07-26T02:00:15.649Z,23.50
2018-07-26T02:02:45.632Z,23.53
2018-07-26T02:05:15.577Z,23.35
2018-07-26T02:07:45.655Z,23.14
2018-07-26T02:10:15.698Z,23.17
2018-07-26T02:12:45.716Z,23.26
2018-07-26T02:15:15.661Z,23.26
2018-07-26T02:17:45.728Z,23.18
2018-07-26T02:20:15.740Z,23.16
2018-07-26T02:22:45.730Z,23.12
2018-07-26T02:25:15.762Z,23.11
2018-07-26T02:27:49.024Z,23.07
2018-07-26T02:30:19.071Z,23.06
2018-07-26T02:32:50.428Z,22.99
2018-07-26T02:35:21.070Z,22.98
2018-07-26T02:37:54.163Z,23.02
2018-07-26T02:40:25.105Z,23.05
2018-07-26T02:42:58.140Z,23.00
2018-07-26T02:45:28.159Z,23.13
2018-07-26T02:47:58.322Z,23.22
2018-07-26T02:50:29.625Z,23.25
2018-07-26T02:53:00.674Z,23.26
2018-07-26T02:55:30.203Z,23.33
2018-07-26T02:58:03.061Z,23.21
2018-07-26T03:00:36.689Z,23.13
2018-07-26T03:03:07.415Z,23.13
2018-07-26T03:05:38.517Z,23.14
2018-07-26T03:08:09.812Z,23.02
2018-07-26T03:10:39.785Z,22.95
2018-07-26T03:13:10.958Z,22.87
2018-07-26T03:15:42.644Z,22.86
2018-07-26T03:18:13.347Z,22.76
2018-07-26T03:20:47.370Z,22.79
2018-07-26T03:23:17.368Z,22.89
2018-07-26T03:25:47.400Z,22.91
2018-07-26T03:28:20.089Z,22.94
2018-07-26T03:30:51.689Z,23.02
2018-07-26T03:33:24.494Z,23.02
2018-07-26T03:35:54.471Z,23.01
2018-07-26T03:38:28.809Z,23.04
2018-07-26T03:41:00.020Z,23.08
2018-07-26T03:43:30.950Z,23.09
2018-07-26T03:46:00.880Z,23.14
2018-07-26T03:48:31.076Z,23.16
2018-07-26T03:51:05.039Z,23.10
2018-07-26T03:53:35.096Z,23.13
2018-07-26T03:56:05.739Z,23.12
2018-07-26T03:58:40.109Z,23.14
2018-07-26T04:01:10.856Z,23.13
2018-07-26T04:03:45.004Z,23.14
2018-07-26T04:06:14.990Z,23.18
2018-07-26T04:08:45.681Z,23.18
2018-07-26T04:11:18.628Z,23.15
2018-07-26T04:13:51.500Z,23.15
2018-07-26T04:16:23.331Z,23.16
2018-07-26T04:18:53.513Z,23.18
2018-07-26T04:21:27.712Z,23.21
2018-07-26T04:23:57.813Z,23.24
2018-07-26T04:26:27.848Z,23.28
2018-07-26T04:28:58.650Z,23.29
2018-07-26T04:31:29.116Z,23.32
2018-07-26T04:33:58.760Z,23.32
2018-07-26T04:36:32.938Z,23.34
2018-07-26T04:39:07.333Z,23.36
2018-07-26T04:41:37.636Z,23.40
2018-07-26T04:44:07.847Z,23.42
2018-07-26T04:46:38.032Z,23.44
2018-07-26T04:49:09.351Z,23.49
2018-07-26T04:51:42.641Z,23.50
2018-07-26T04:54:13.517Z,23.54
2018-07-26T04:56:44.923Z,23.58
2018-07-26T04:59:14.949Z,23.63
2018-07-26T05:01:49.817Z,23.62
2018-07-26T05:04:23.702Z,23.61
2018-07-26T05:06:55.337Z,23.74
2018-07-26T05:09:25.661Z,23.74
2018-07-26T05:11:58.834Z,23.72
2018-07-26T05:14:32.833Z,23.70
2018-07-26T05:17:05.631Z,23.80
2018-07-26T05:19:35.788Z,23.87
2018-07-26T05:22:08.751Z,23.84
2018-07-26T05:24:39.118Z,23.88
2018-07-26T05:27:10.673Z,23.88
2018-07-26T05:29:40.984Z,23.91
2018-07-26T05:32:11.348Z,23.98
2018-07-26T05:34:41.325Z,23.96
2018-07-26T05:37:12.117Z,24.01
2018-07-26T05:39:46.825Z,24.03
2018-07-26T05:42:19.712Z,24.09
2018-07-26T05:44:54.081Z,24.04
2018-07-26T05:47:24.206Z,24.13
2018-07-26T05:49:54.565Z,24.17
2018-07-26T05:52:24.959Z,24.19
2018-07-26T05:54:56.518Z,24.19
2018-07-26T05:57:26.970Z,24.16
2018-07-26T06:00:00.923Z,24.15
2018-07-26T06:02:30.903Z,24.29
2018-07-26T06:05:01.123Z,24.30
2018-07-26T06:07:34.077Z,24.44
2018-07-26T06:10:04.748Z,24.51
2018-07-26T06:12:38.184Z,24.44
2018-07-26T06:15:13.565Z,24.43
2018-07-26T06:17:43.883Z,24.52
2018-07-26T06:20:14.978Z,24.59
2018-07-26T06:22:46.964Z,24.64
2018-07-26T06:27:45.607Z,24.82
2018-07-26T06:30:18.007Z,25.02
2018-07-26T06:32:51.432Z,25.15
2018-07-26T06:35:21.447Z,25.13
2018-07-26T06:37:51.525Z,25.26
2018-07-26T06:40:21.769Z,25.44
2018-07-26T06:42:57.129Z,25.85
2018-07-26T06:45:27.248Z,26.06
2018-07-26T06:47:57.363Z,26.35
2018-07-26T06:50:27.881Z,26.62
2018-07-26T06:52:58.304Z,26.67
2018-07-26T06:55:30.931Z,26.66
2018-07-26T06:58:02.689Z,26.87
2018-07-26T07:00:33.107Z,27.15
2018-07-26T07:03:08.074Z,27.07
2018-07-26T07:05:38.319Z,27.11
2018-07-26T07:08:10.132Z,27.10
2018-07-26T07:10:41.028Z,27.35
2018-07-26T07:13:11.377Z,27.43
2018-07-26T07:15:41.453Z,27.34
2018-07-26T07:18:14.981Z,27.47
2018-07-26T07:20:44.964Z,27.44
2018-07-26T07:23:15.276Z,27.55
2018-07-26T07:25:45.516Z,27.47
2018-07-26T07:28:15.585Z,27.67
2018-07-26T07:30:46.070Z,27.54
2018-07-26T07:33:17.619Z,27.56
2018-07-26T07:35:47.986Z,27.58
2018-07-26T07:38:18.536Z,27.71
2018-07-26T07:40:49.440Z,27.68
2018-07-26T07:43:20.450Z,27.79
2018-07-26T07:45:55.431Z,27.72
2018-07-26T07:48:31.818Z,27.79
2018-07-26T07:51:03.033Z,27.81
2018-07-26T07:53:34.232Z,27.83
2018-07-26T07:56:05.317Z,28.04
2018-07-26T07:58:36.110Z,27.97
2018-07-26T08:01:07.198Z,28.25
2018-07-26T08:03:38.782Z,28.25
2018-07-26T08:06:08.923Z,28.35
2018-07-26T08:08:41.803Z,28.23
2018-07-26T08:11:12.045Z,28.41
2018-07-26T08:13:42.204Z,28.32
2018-07-26T08:16:14.931Z,28.67
2018-07-26T08:18:48.352Z,28.55
2018-07-26T08:21:23.365Z,28.68
2018-07-26T08:23:54.163Z,28.56
2018-07-26T08:26:24.243Z,28.68
2018-07-26T08:28:54.321Z,28.50
2018-07-26T08:31:24.744Z,28.49
2018-07-26T08:33:54.764Z,28.56
2018-07-26T08:36:25.151Z,28.71
2018-07-26T08:38:57.836Z,28.58
2018-07-26T08:41:27.871Z,28.59
2018-07-26T08:43:57.981Z,28.70
2018-07-26T08:46:28.533Z,28.89
2018-07-26T08:48:59.202Z,28.91
2018-07-26T08:51:30.009Z,28.66
2018-07-26T08:54:00.361Z,28.65
2018-07-26T08:56:30.753Z,28.74
2018-07-26T08:59:01.417Z,28.67
2018-07-26T09:01:32.743Z,28.68
2018-07-26T09:04:03.933Z,28.96
2018-07-26T09:06:38.278Z,29.11
2018-07-26T09:09:19.754Z,29.23
2018-07-26T09:12:02.468Z,29.10
2018-07-26T09:14:35.207Z,29.17
2018-07-26T09:17:06.451Z,29.16
2018-07-26T09:19:40.702Z,29.27
2018-07-26T09:22:12.070Z,29.41
2018-07-26T09:24:44.579Z,29.44
2018-07-26T09:27:16.447Z,29.52
2018-07-26T09:29:49.679Z,29.51
2018-07-26T09:32:20.765Z,29.60
2018-07-26T09:34:52.546Z,29.62
2018-07-26T09:37:32.180Z,29.75
2018-07-26T09:40:08.851Z,29.75
2018-07-26T09:42:39.791Z,29.66
2018-07-26T09:45:10.038Z,29.67
2018-07-26T09:47:43.166Z,29.67
2018-07-26T09:50:15.196Z,29.60
2018-07-26T09:52:45.644Z,29.46
2018-07-26T09:55:20.031Z,29.65
2018-07-26T09:57:56.226Z,29.82
2018-07-26T10:00:31.838Z,29.61
2018-07-26T10:03:03.939Z,29.60
2018-07-26T10:05:38.979Z,29.75
2018-07-26T10:08:09.469Z,29.65
2018-07-26T10:10:43.308Z,29.51
2018-07-26T10:13:18.451Z,29.48
2018-07-26T10:15:52.956Z,29.43
2018-07-26T10:18:24.282Z,29.48
2018-07-26T10:20:58.422Z,29.45
2018-07-26T10:23:30.918Z,29.41
2018-07-26T10:26:05.332Z,29.37
2018-07-26T10:28:39.505Z,29.52
2018-07-26T10:31:12.276Z,29.71
2018-07-26T10:33:46.900Z,29.68
2018-07-26T10:36:19.992Z,29.58
2018-07-26T10:38:58.198Z,29.66
2018-07-26T10:44:13.521Z,29.78
2018-07-26T10:46:50.481Z,29.62
2018-07-26T10:52:13.692Z,29.69
2018-07-26T10:54:48.921Z,29.57
2018-07-26T10:57:23.857Z,29.61
2018-07-26T10:59:54.377Z,29.42
2018-07-26T11:02:24.914Z,29.42
2018-07-26T11:04:55.537Z,29.32
2018-07-26T11:07:27.534Z,29.38
2018-07-26T11:09:57.634Z,29.41
2018-07-26T11:12:28.206Z,29.44
2018-07-26T11:15:14.673Z,29.25
2018-07-26T11:17:44.989Z,29.27
2018-07-26T11:20:15.055Z,29.10
2018-07-26T11:22:45.260Z,29.24
2018-07-26T11:25:15.576Z,29.14
2018-07-26T11:27:46.454Z,29.13
2018-07-26T11:30:16.877Z,29.14
2018-07-26T11:32:47.138Z,29.13
2018-07-26T11:35:17.949Z,29.08
2018-07-26T11:37:52.770Z,29.08
2018-07-26T11:40:23.827Z,29.06
2018-07-26T11:42:54.147Z,29.01
2018-07-26T11:45:25.392Z,29.08
2018-07-26T11:47:55.692Z,29.10
2018-07-26T11:50:25.951Z,29.18
2018-07-26T11:52:56.246Z,29.13
2018-07-26T11:55:26.390Z,29.13
2018-07-26T11:57:56.509Z,29.16
2018-07-26T12:00:26.691Z,29.27
2018-07-26T12:02:56.790Z,29.22
2018-07-26T12:05:26.624Z,29.22
2018-07-26T12:07:56.334Z,29.32
2018-07-26T12:10:26.997Z,29.42
2018-07-26T12:12:57.554Z,29.46
2018-07-26T12:15:27.290Z,29.46
2018-07-26T12:17:57.094Z,29.46
2018-07-26T12:20:26.830Z,29.36
2018-07-26T12:22:56.726Z,28.64
2018-07-26T12:25:26.414Z,28.59
2018-07-26T12:27:56.151Z,28.62
2018-07-26T12:30:26.038Z,28.58
2018-07-26T12:32:55.794Z,28.47
2018-07-26T12:35:25.734Z,28.36
2018-07-26T12:37:55.343Z,28.26
2018-07-26T12:40:25.095Z,28.27
2018-07-26T12:42:55.330Z,28.47
2018-07-26T12:45:25.883Z,28.54
2018-07-26T12:47:57.536Z,28.62
2018-07-26T12:50:27.649Z,28.83
2018-07-26T12:52:57.773Z,28.86
2018-07-26T12:55:28.121Z,29.07
2018-07-26T12:57:58.214Z,29.18
2018-07-26T13:00:28.660Z,29.35
2018-07-26T13:02:58.771Z,29.57
2018-07-26T13:05:29.662Z,29.49
2018-07-26T13:08:04.562Z,29.63
2018-07-26T13:10:37.815Z,29.77
2018-07-26T13:13:08.371Z,29.98
2018-07-26T13:15:38.635Z,30.05
2018-07-26T13:18:09.596Z,29.82
2018-07-26T13:20:40.031Z,29.75
2018-07-26T13:23:10.426Z,29.79
2018-07-26T13:27:49.157Z,29.72
2018-07-26T13:30:20.438Z,29.58
2018-07-26T13:32:50.653Z,29.64
2018-07-26T13:35:21.088Z,29.61
2018-07-26T13:37:51.535Z,29.69
2018-07-26T13:40:22.300Z,29.71
2018-07-26T13:42:54.527Z,29.81
2018-07-26T13:45:25.015Z,29.89
2018-07-26T13:47:55.292Z,30.00
2018-07-26T13:50:25.494Z,30.04
2018-07-26T13:52:55.988Z,30.21
2018-07-26T13:55:26.213Z,30.18
2018-07-26T13:57:56.331Z,30.30
2018-07-26T14:00:26.386Z,30.54
2018-07-26T14:02:56.589Z,30.56
2018-07-26T14:05:28.449Z,30.80
2018-07-26T14:08:02.668Z,31.02
2018-07-26T14:10:35.874Z,31.14
2018-07-26T14:13:06.737Z,31.27
2018-07-26T14:15:37.025Z,31.25
2018-07-26T14:18:07.349Z,30.81
2018-07-26T14:20:37.857Z,30.96
2018-07-26T14:23:13.433Z,30.94
2018-07-26T14:25:43.616Z,30.90
2018-07-26T14:28:16.065Z,30.73
2018-07-26T14:30:46.232Z,30.75
2018-07-26T14:33:16.639Z,30.90
2018-07-26T14:35:46.888Z,31.07
2018-07-26T14:38:17.511Z,31.05
2018-07-26T14:40:47.822Z,31.01
2018-07-26T14:43:22.852Z,30.97
2018-07-26T14:45:57.967Z,31.01
2018-07-26T14:48:29.475Z,31.03
2018-07-26T14:50:59.677Z,31.08
2018-07-26T14:53:29.920Z,31.12
2018-07-26T14:56:00.328Z,31.16
2018-07-26T14:58:30.458Z,31.08
2018-07-26T15:01:03.018Z,31.17
2018-07-26T15:03:37.629Z,31.14
2018-07-26T15:06:09.291Z,31.25
2018-07-26T15:08:40.753Z,31.27
2018-07-26T15:11:14.889Z,31.36
2018-07-26T15:13:45.152Z,31.39
2018-07-26T15:16:15.476Z,31.34
2018-07-26T15:18:45.900Z,31.24
2018-07-26T15:21:15.976Z,31.25
2018-07-26T15:23:46.764Z,31.21
2018-07-26T15:26:16.901Z,31.14
2018-07-26T15:28:47.000Z,31.20
2018-07-26T15:31:18.120Z,31.19
2018-07-26T15:33:48.373Z,31.34
2018-07-26T15:36:18.646Z,31.31
2018-07-26T15:38:48.292Z,31.34
2018-07-26T15:41:18.624Z,31.35
2018-07-26T15:43:48.704Z,31.49
2018-07-26T15:46:19.568Z,31.63
2018-07-26T15:48:49.906Z,31.76
2018-07-26T15:51:20.912Z,31.95
2018-07-26T15:53:52.430Z,31.95
2018-07-26T15:56:23.035Z,31.80
2018-07-26T15:58:53.098Z,31.64
2018-07-26T16:01:22.917Z,31.57
2018-07-26T16:03:56.278Z,31.52
2018-07-26T16:06:26.965Z,31.61
2018-07-26T16:08:58.153Z,31.38
2018-07-26T16:11:28.227Z,31.42
2018-07-26T16:13:58.487Z,31.34
2018-07-26T16:16:29.289Z,31.21
2018-07-26T16:19:03.399Z,31.05
2018-07-26T16:21:33.863Z,31.16
2018-07-26T16:24:04.191Z,31.33
2018-07-26T16:26:34.319Z,31.27
2018-07-26T16:29:04.822Z,31.29
2018-07-26T16:31:35.114Z,31.23
2018-07-26T16:34:07.832Z,31.09
2018-07-26T16:36:37.971Z,30.69
2018-07-26T16:39:17.861Z,30.83
2018-07-26T16:41:48.024Z,30.68
2018-07-26T16:44:19.882Z,30.82
2018-07-26T16:46:49.995Z,30.82
2018-07-26T16:49:24.902Z,30.86
2018-07-26T16:51:55.143Z,30.86
2018-07-26T16:54:25.388Z,30.92
2018-07-26T16:56:55.640Z,30.87
2018-07-26T16:59:28.681Z,30.87
2018-07-26T17:02:03.167Z,30.84
2018-07-26T17:04:33.341Z,30.74
2018-07-26T17:07:05.688Z,30.75
2018-07-26T17:09:37.072Z,30.69
2018-07-26T17:12:07.638Z,30.66
2018-07-26T17:14:37.754Z,30.67
2018-07-26T17:17:12.178Z,30.70
2018-07-26T17:19:42.360Z,30.72
2018-07-26T17:22:12.559Z,30.71
2018-07-26T17:24:44.374Z,30.66
2018-07-26T17:27:17.465Z,30.68
2018-07-26T17:29:48.344Z,30.64
2018-07-26T17:32:18.529Z,30.56
2018-07-26T17:34:48.686Z,30.59
2018-07-26T17:37:19.130Z,30.55
2018-07-26T17:39:49.237Z,30.60
2018-07-26T17:42:19.774Z,30.42
2018-07-26T17:44:50.060Z,30.47
2018-07-26T17:47:20.376Z,30.51
2018-07-26T17:49:50.546Z,30.39
2018-07-26T17:52:20.577Z,30.39
2018-07-26T17:54:50.862Z,30.31
2018-07-26T17:57:21.502Z,30.18
2018-07-26T17:59:52.093Z,29.95
2018-07-26T18:02:23.251Z,29.92
2018-07-26T18:04:56.323Z,29.92
2018-07-26T18:07:26.737Z,29.86
2018-07-26T18:09:57.200Z,29.84
2018-07-26T18:12:29.884Z,29.72
2018-07-26T18:14:59.783Z,29.64
2018-07-26T18:17:32.225Z,29.64
2018-07-26T18:20:04.272Z,29.66
2018-07-26T18:22:34.504Z,29.61
2018-07-26T18:25:04.779Z,29.61
2018-07-26T18:27:35.213Z,29.60
2018-07-26T18:30:05.789Z,29.40
2018-07-26T18:32:38.277Z,29.30
2018-07-26T18:35:08.540Z,29.24
2018-07-26T18:37:38.758Z,29.18
2018-07-26T18:40:09.809Z,29.13
2018-07-26T18:42:39.955Z,29.09
2018-07-26T18:45:11.426Z,29.01
2018-07-26T18:47:42.057Z,28.97
2018-07-26T18:50:12.483Z,28.92
2018-07-26T18:52:43.163Z,28.94
2018-07-26T18:55:15.085Z,28.87
2018-07-26T18:57:45.238Z,28.80
2018-07-26T19:00:16.144Z,28.76
2018-07-26T19:02:46.674Z,28.72
2018-07-26T19:05:16.878Z,28.66
2018-07-26T19:07:47.659Z,28.61
2018-07-26T19:10:17.729Z,28.52
2018-07-26T19:12:48.259Z,28.44
2018-07-26T19:15:18.516Z,28.39
2018-07-26T19:17:48.709Z,28.35
2018-07-26T19:20:18.870Z,28.28
2018-07-26T19:22:49.161Z,28.26
2018-07-26T19:25:19.833Z,28.24
2018-07-26T19:27:50.002Z,28.15
2018-07-26T19:30:20.256Z,28.09
2018-07-26T19:32:49.908Z,28.10
2018-07-26T19:35:20.153Z,27.99
2018-07-26T19:37:50.373Z,28.01
2018-07-26T19:40:20.736Z,28.03
2018-07-26T19:42:52.410Z,27.98
2018-07-26T19:45:22.955Z,27.91
2018-07-26T19:47:54.593Z,27.95
2018-07-26T19:50:25.784Z,27.94
2018-07-26T19:52:56.625Z,27.79
2018-07-26T19:55:27.155Z,27.89
2018-07-26T19:57:59.292Z,27.93
2018-07-26T20:00:29.962Z,27.90
2018-07-26T20:03:01.046Z,27.73
2018-07-26T20:05:32.240Z,27.56
2018-07-26T20:08:02.764Z,27.35
2018-07-26T20:10:32.882Z,27.22
2018-07-26T20:13:10.318Z,27.05
2018-07-26T20:15:39.987Z,26.95
2018-07-26T20:18:10.856Z,26.94
2018-07-26T20:20:42.771Z,26.98
2018-07-26T20:23:13.094Z,27.01
2018-07-26T20:25:47.007Z,27.08
2018-07-26T20:28:18.000Z,27.03
2018-07-26T20:30:48.392Z,27.03
2018-07-26T20:33:18.488Z,27.09
2018-07-26T20:35:48.847Z,27.13
2018-07-26T20:38:20.289Z,27.20
2018-07-26T20:41:01.694Z,27.22
2018-07-26T20:43:31.783Z,27.05
2018-07-26T20:46:02.347Z,26.84
2018-07-26T20:48:34.508Z,26.54
2018-07-26T20:51:05.233Z,26.48
2018-07-26T20:53:37.156Z,26.40
2018-07-26T20:56:07.832Z,26.42
2018-07-26T20:58:38.226Z,26.39
2018-07-26T21:01:08.844Z,26.31
2018-07-26T21:03:39.082Z,26.36
2018-07-26T21:06:09.486Z,26.22
2018-07-26T21:08:39.969Z,26.18
2018-07-26T21:11:18.226Z,26.20
2018-07-26T21:13:48.441Z,26.17
2018-07-26T21:16:19.418Z,26.12
2018-07-26T21:18:50.045Z,26.03
2018-07-26T21:21:20.461Z,25.94
2018-07-26T21:23:52.395Z,25.88
2018-07-26T21:26:22.645Z,25.86
2018-07-26T21:28:52.947Z,25.73
2018-07-26T21:31:24.569Z,25.57
2018-07-26T21:33:56.823Z,25.52
2018-07-26T21:36:27.155Z,25.56
2018-07-26T21:38:57.573Z,25.52
2018-07-26T21:41:28.309Z,25.45
2018-07-26T21:44:02.115Z,25.35
2018-07-26T21:46:33.705Z,25.34
2018-07-26T21:49:04.400Z,25.25
2018-07-26T21:51:35.640Z,25.34
2018-07-26T21:54:06.869Z,25.22
2018-07-26T21:56:37.900Z,25.32
2018-07-26T21:59:08.186Z,25.27
2018-07-26T22:01:38.326Z,25.33
2018-07-26T22:04:10.683Z,25.21
2018-07-26T22:06:41.021Z,25.17
2018-07-26T22:09:15.855Z,25.17
2018-07-26T22:11:46.172Z,25.07
2018-07-26T22:14:17.242Z,24.97
2018-07-26T22:16:47.633Z,25.00
2018-07-26T22:19:18.882Z,24.96
2018-07-26T22:21:48.989Z,24.88
2018-07-26T22:24:22.516Z,24.91
2018-07-26T22:26:52.758Z,24.84
2018-07-26T22:29:23.044Z,24.82
2018-07-26T22:31:53.304Z,24.84
2018-07-26T22:34:23.955Z,24.75
2018-07-26T22:36:56.370Z,24.78
2018-07-26T22:39:26.567Z,24.68
2018-07-26T22:41:56.796Z,24.59
2018-07-26T22:44:26.873Z,24.52
2018-07-26T22:46:57.044Z,24.55
2018-07-26T22:49:57.206Z,24.50
2018-07-26T22:52:27.317Z,24.43
2018-07-26T22:55:00.216Z,24.43
2018-07-26T22:57:30.444Z,24.40
2018-07-26T23:00:01.847Z,24.34
2018-07-26T23:02:31.912Z,24.31
2018-07-26T23:05:05.291Z,24.32
2018-07-26T23:07:36.200Z,24.27
2018-07-26T23:10:08.700Z,24.21
2018-07-26T23:12:40.289Z,24.24
2018-07-26T23:15:12.084Z,24.27
2018-07-26T23:17:45.785Z,24.28
2018-07-26T23:20:19.929Z,24.23
2018-07-26T23:22:55.137Z,24.25
2018-07-26T23:25:25.302Z,24.28
2018-07-26T23:27:56.204Z,24.32
2018-07-26T23:30:26.567Z,24.17
2018-07-26T23:32:58.788Z,24.14
2018-07-26T23:35:28.985Z,24.11
2018-07-26T23:37:59.325Z,24.18
2018-07-26T23:40:29.396Z,24.10
2018-07-26T23:42:59.643Z,24.10
2018-07-26T23:45:30.828Z,24.11
2018-07-26T23:48:00.879Z,24.05
2018-07-26T23:50:31.076Z,23.95
2018-07-26T23:53:01.162Z,23.97
2018-07-26T23:55:34.453Z,24.00
2018-07-26T23:58:06.762Z,23.95
